METAR Data
IDs: Format: Raw Decoded Include TAF

Data at: 0240 UTC 25 Feb 2021

FAOR 250230Z 36007KT 5000 BR SCT003 16/15 Q1019 NOSIG